createdAt,value
2023-01-09T14:32:32.194Z,1.90
2023-01-09T14:43:51.813Z,1.15
2023-01-09T15:20:22.066Z,1.63
2023-01-09T15:48:31.407Z,1.02
2023-01-09T15:51:20.059Z,1.13
2023-01-09T16:45:25.503Z,2.88
2023-01-09T16:48:25.081Z,3.35
2023-01-09T16:50:53.709Z,4.90
2023-01-09T17:07:27.925Z,2.75
2023-01-09T17:27:14.341Z,4.00
2023-01-09T17:29:43.270Z,3.88
2023-01-09T17:32:16.871Z,5.22
2023-01-09T17:34:53.685Z,5.38
2023-01-09T17:37:24.912Z,4.32
2023-01-09T17:39:54.336Z,7.30
2023-01-09T17:42:25.705Z,5.05
2023-01-09T17:47:24.717Z,4.38
2023-01-09T17:49:56.093Z,4.97
2023-01-09T17:54:54.299Z,5.50
2023-01-09T17:57:22.690Z,5.70
2023-01-09T17:59:51.062Z,6.57
2023-01-09T18:02:20.223Z,5.68
2023-01-09T18:04:48.686Z,4.85
2023-01-09T18:07:19.415Z,5.28
2023-01-09T18:09:47.770Z,6.43
2023-01-09T18:12:17.984Z,4.88
2023-01-09T18:14:47.848Z,4.18
2023-01-09T18:17:16.351Z,4.45
2023-01-09T18:19:45.293Z,5.82
2023-01-09T18:22:26.166Z,4.15
2023-01-09T18:25:28.856Z,4.88
2023-01-09T18:28:00.335Z,4.75
2023-01-09T18:30:29.124Z,4.47
2023-01-09T18:32:59.943Z,4.18
2023-01-09T18:35:56.787Z,4.57
2023-01-09T18:52:56.866Z,4.35
2023-01-09T18:56:28.139Z,4.70
2023-01-09T18:58:58.496Z,4.50
2023-01-09T19:04:57.610Z,4.75
2023-01-09T19:07:31.454Z,4.85
2023-01-09T19:10:01.743Z,4.80
2023-01-09T19:12:31.747Z,4.68
2023-01-09T19:15:00.096Z,5.55
2023-01-09T19:17:28.548Z,5.15
2023-01-09T19:19:56.780Z,4.95
2023-01-09T19:22:29.944Z,6.65
2023-01-09T19:24:58.212Z,5.30
2023-01-09T19:27:26.485Z,4.97
2023-01-09T19:29:55.233Z,4.80
2023-01-09T19:32:26.621Z,5.43
2023-01-09T19:37:33.207Z,5.03
2023-01-09T19:40:01.493Z,6.47
2023-01-09T19:42:30.172Z,4.95
2023-01-09T19:44:58.405Z,5.22
2023-01-09T19:47:29.892Z,5.00
2023-01-09T19:49:58.144Z,4.90
2023-01-09T19:52:31.166Z,5.30
2023-01-09T19:54:59.527Z,4.47
2023-01-09T20:00:31.413Z,4.97
2023-01-09T20:02:59.937Z,5.18
2023-01-09T20:05:36.849Z,4.82
2023-01-09T20:08:07.429Z,5.28
2023-01-09T20:10:44.837Z,6.35
2023-01-09T20:13:13.837Z,5.45
2023-01-09T20:15:42.257Z,6.22
2023-01-09T20:18:11.228Z,5.65
2023-01-09T20:20:49.284Z,4.70
2023-01-09T20:23:20.509Z,4.93
2023-01-09T20:25:50.945Z,6.35
2023-01-09T20:28:19.258Z,4.93
2023-01-09T20:30:50.232Z,5.13
2023-01-09T20:33:19.512Z,5.57
2023-01-09T20:35:48.398Z,4.32
2023-01-09T20:38:16.879Z,4.88
2023-01-09T20:40:45.308Z,5.00
2023-01-09T20:43:14.154Z,5.03
2023-01-09T20:45:42.647Z,5.82
2023-01-09T20:48:12.060Z,5.53
2023-01-09T20:50:43.413Z,4.22
2023-01-09T20:55:43.480Z,4.20
2023-01-09T20:58:11.796Z,4.80
2023-01-09T21:00:42.475Z,5.93
2023-01-09T21:03:13.111Z,5.60
2023-01-09T21:05:42.316Z,5.07
2023-01-09T21:08:10.678Z,5.18
2023-01-09T21:10:39.148Z,5.32
2023-01-09T21:13:07.358Z,5.93
2023-01-09T21:15:37.990Z,5.80
2023-01-09T21:18:06.502Z,5.40
2023-01-09T21:20:35.725Z,5.25
2023-01-09T21:24:58.383Z,6.35
2023-01-09T21:47:08.369Z,5.47
2023-01-09T22:02:02.029Z,5.45
2023-01-09T22:04:39.884Z,5.88
2023-01-09T22:08:13.893Z,5.57
2023-01-09T22:10:02.993Z,5.65
2023-01-09T22:16:09.882Z,7.22
2023-01-09T22:19:03.359Z,7.55
2023-01-09T22:24:49.366Z,8.65
2023-01-09T22:29:57.787Z,7.38
2023-01-09T22:32:33.841Z,9.07
2023-01-09T22:35:12.631Z,8.15
2023-01-09T22:37:40.919Z,9.05
2023-01-09T22:40:12.542Z,8.52
2023-01-09T22:42:44.276Z,7.93
2023-01-09T22:45:13.272Z,9.65
2023-01-09T22:48:01.021Z,8.95
2023-01-09T22:50:33.162Z,8.45
2023-01-09T22:53:01.995Z,7.25
2023-01-09T22:58:33.868Z,7.97
2023-01-09T23:01:02.193Z,9.00
2023-01-09T23:03:30.779Z,9.13
2023-01-09T23:06:03.125Z,8.30
2023-01-09T23:08:32.556Z,8.88
2023-01-09T23:11:01.851Z,7.18
2023-01-09T23:13:39.358Z,7.03
2023-01-09T23:16:33.928Z,7.53
2023-01-09T23:19:07.292Z,8.48
2023-01-09T23:21:35.740Z,8.57
2023-01-09T23:24:04.553Z,9.35
2023-01-09T23:26:38.852Z,8.40
2023-01-09T23:29:11.084Z,8.43
2023-01-09T23:31:39.520Z,7.65
2023-01-09T23:34:10.566Z,8.60
2023-01-09T23:36:38.809Z,9.02
2023-01-09T23:39:14.564Z,8.32
2023-01-09T23:46:05.474Z,7.18
2023-01-09T23:48:57.286Z,8.38
2023-01-09T23:52:09.695Z,8.60
2023-01-09T23:54:41.558Z,7.60
2023-01-09T23:57:10.875Z,6.80
2023-01-09T23:59:39.625Z,9.82
